createdAt,value
2024-03-11T00:01:15.196Z,11.33
2024-03-11T00:04:02.732Z,11.33
2024-03-11T00:06:55.199Z,11.29
2024-03-11T00:09:45.716Z,11.28
2024-03-11T00:12:43.228Z,11.29
2024-03-11T00:15:30.571Z,11.28
2024-03-11T00:18:27.051Z,11.28
2024-03-11T00:21:17.561Z,11.21
2024-03-11T00:24:04.876Z,11.25
2024-03-11T00:26:52.511Z,11.26
2024-03-11T00:29:39.438Z,11.21
2024-03-11T00:32:29.332Z,11.22
2024-03-11T00:35:17.000Z,11.21
2024-03-11T00:38:09.758Z,11.21
2024-03-11T00:40:57.016Z,11.20
2024-03-11T00:43:47.110Z,11.20
2024-03-11T00:46:39.258Z,11.18
2024-03-11T00:49:32.916Z,11.19
2024-03-11T00:52:23.074Z,11.14
2024-03-11T00:55:10.825Z,11.14
2024-03-11T00:58:02.460Z,11.13
2024-03-11T01:00:49.334Z,11.11
2024-03-11T01:03:36.249Z,11.12
2024-03-11T01:06:24.298Z,11.10
2024-03-11T01:09:13.689Z,11.09
2024-03-11T01:12:04.842Z,11.09
2024-03-11T01:14:54.524Z,11.07
2024-03-11T01:17:42.289Z,11.08
2024-03-11T01:20:32.858Z,11.07
2024-03-11T01:23:26.190Z,11.06
2024-03-11T01:26:18.086Z,11.02
2024-03-11T01:29:08.223Z,11.01
2024-03-11T01:31:57.309Z,11.01
2024-03-11T01:34:45.330Z,10.99
2024-03-11T01:37:45.441Z,10.96
2024-03-11T01:40:32.453Z,10.97
2024-03-11T01:43:19.281Z,10.97
2024-03-11T01:46:07.171Z,10.94
2024-03-11T01:48:54.996Z,10.95
2024-03-11T01:51:42.024Z,10.93
2024-03-11T01:54:36.942Z,10.91
2024-03-11T01:57:30.723Z,10.85
2024-03-11T02:00:24.378Z,10.83
2024-03-11T02:03:18.283Z,10.84
2024-03-11T02:06:11.131Z,10.80
2024-03-11T02:09:00.015Z,10.75
2024-03-11T02:11:47.359Z,10.75
2024-03-11T02:14:34.523Z,10.72
2024-03-11T02:17:24.532Z,10.71
2024-03-11T02:20:19.964Z,10.69
2024-03-11T02:23:07.672Z,10.66
2024-03-11T02:25:56.980Z,10.63
2024-03-11T02:28:44.565Z,10.62
2024-03-11T02:31:31.543Z,10.59
2024-03-11T02:34:18.486Z,10.57
2024-03-11T02:37:08.626Z,10.57
2024-03-11T02:39:57.783Z,10.54
2024-03-11T02:42:45.335Z,10.56
2024-03-11T02:45:32.493Z,10.55
2024-03-11T02:48:21.533Z,10.55
2024-03-11T02:51:08.451Z,10.52
2024-03-11T02:53:57.831Z,10.48
2024-03-11T02:56:44.834Z,10.45
2024-03-11T02:59:31.769Z,10.43
2024-03-11T03:02:19.857Z,10.40
2024-03-11T03:05:07.348Z,10.39
2024-03-11T03:07:54.346Z,10.40
2024-03-11T03:10:41.177Z,10.38
2024-03-11T03:13:31.076Z,10.35
2024-03-11T03:16:18.030Z,10.34
2024-03-11T03:19:07.407Z,10.34
2024-03-11T03:21:57.632Z,10.32
2024-03-11T03:24:44.647Z,10.31
2024-03-11T03:27:31.880Z,10.31
2024-03-11T03:30:18.748Z,10.28
2024-03-11T03:33:09.047Z,10.23
2024-03-11T03:35:57.202Z,10.24
2024-03-11T03:38:44.456Z,10.20
2024-03-11T03:41:31.488Z,10.15
2024-03-11T03:44:19.462Z,10.16
2024-03-11T03:47:06.622Z,10.12
2024-03-11T03:49:54.513Z,10.09
2024-03-11T03:52:49.673Z,10.04
2024-03-11T03:55:38.962Z,10.01
2024-03-11T03:58:26.331Z,10.02
2024-03-11T04:01:13.180Z,10.02
2024-03-11T04:04:02.834Z,10.00
2024-03-11T04:06:49.677Z,9.99
2024-03-11T04:09:38.098Z,9.93
2024-03-11T04:12:25.308Z,9.94
2024-03-11T04:15:13.652Z,9.95
2024-03-11T04:18:06.459Z,9.92
2024-03-11T04:20:57.440Z,9.93
2024-03-11T04:23:45.745Z,9.89
2024-03-11T04:26:33.306Z,9.87
2024-03-11T04:29:20.842Z,9.87
2024-03-11T04:32:08.055Z,9.85
2024-03-11T04:34:55.042Z,9.85
2024-03-11T04:37:42.276Z,9.87
2024-03-11T04:40:30.525Z,9.88
2024-03-11T04:43:18.641Z,9.87
2024-03-11T04:46:05.436Z,9.89
2024-03-11T04:48:52.340Z,9.88
2024-03-11T04:51:39.750Z,9.88
2024-03-11T04:54:27.982Z,9.87
2024-03-11T04:57:18.122Z,9.85
2024-03-11T05:00:09.510Z,9.82
2024-03-11T05:03:02.940Z,9.79
2024-03-11T05:05:53.257Z,9.74
2024-03-11T05:08:40.410Z,9.72
2024-03-11T05:11:28.214Z,9.71
2024-03-11T05:14:15.186Z,9.70
2024-03-11T05:17:02.246Z,9.68
2024-03-11T05:19:49.965Z,9.71
2024-03-11T05:22:42.705Z,9.69
2024-03-11T05:25:29.777Z,9.67
2024-03-11T05:28:19.166Z,9.65
2024-03-11T05:31:09.584Z,9.67
2024-03-11T05:34:16.184Z,9.64
2024-03-11T05:37:11.473Z,9.63
2024-03-11T05:40:08.597Z,9.61
2024-03-11T05:49:31.858Z,9.42
2024-03-11T05:52:39.484Z,9.34
2024-03-11T06:02:40.199Z,9.20
2024-03-11T06:06:00.202Z,9.14
2024-03-11T06:12:14.236Z,9.09
2024-03-11T06:15:01.181Z,9.09
2024-03-11T06:17:48.694Z,9.15
2024-03-11T06:20:35.600Z,9.14
2024-03-11T06:23:22.457Z,9.16
2024-03-11T06:26:09.458Z,9.20
2024-03-11T06:29:03.176Z,9.69
2024-03-11T06:32:09.829Z,10.06
2024-03-11T06:36:00.956Z,10.03
2024-03-11T07:26:35.254Z,9.07
2024-03-11T07:29:46.698Z,9.10
2024-03-11T07:33:22.682Z,9.08
2024-03-11T07:39:38.891Z,9.13
2024-03-11T07:42:42.302Z,9.13
2024-03-11T07:45:29.151Z,9.18
2024-03-11T07:48:16.020Z,9.23
2024-03-11T07:51:02.922Z,9.28
2024-03-11T07:54:06.424Z,9.30
2024-03-11T08:01:14.973Z,9.43
2024-03-11T08:04:02.028Z,9.49
2024-03-11T08:06:48.924Z,9.54
2024-03-11T08:09:35.813Z,9.60
2024-03-11T08:12:23.930Z,9.67
2024-03-11T08:15:15.344Z,9.74
2024-03-11T08:18:02.241Z,9.79
2024-03-11T08:20:49.076Z,9.84
2024-03-11T08:23:35.913Z,9.89
2024-03-11T08:26:22.750Z,9.93
2024-03-11T08:29:11.214Z,9.97
2024-03-11T08:31:58.215Z,10.01
2024-03-11T08:34:45.033Z,10.03
2024-03-11T08:37:31.886Z,10.07
2024-03-11T08:40:21.212Z,10.07
2024-03-11T08:43:08.288Z,10.10
2024-03-11T08:45:57.442Z,10.13
2024-03-11T08:48:44.194Z,10.15
2024-03-11T08:51:31.158Z,10.17
2024-03-11T08:54:18.020Z,10.18
2024-03-11T08:57:04.894Z,10.20
2024-03-11T08:59:51.858Z,10.20
2024-03-11T09:02:42.836Z,10.16
2024-03-11T09:05:29.753Z,10.23
2024-03-11T09:08:16.597Z,10.27
2024-03-11T09:11:04.932Z,10.30
2024-03-11T09:13:51.790Z,10.33
2024-03-11T09:16:39.568Z,10.37
2024-03-11T09:19:27.129Z,10.41
2024-03-11T09:22:16.448Z,10.46
2024-03-11T09:25:05.023Z,10.50
2024-03-11T09:28:02.396Z,10.53
2024-03-11T09:30:50.455Z,10.57
2024-03-11T09:33:40.143Z,10.63
2024-03-11T09:36:29.048Z,10.66
2024-03-11T09:39:20.212Z,10.71
2024-03-11T09:42:09.365Z,10.74
2024-03-11T09:44:56.341Z,10.79
2024-03-11T09:47:43.191Z,10.83
2024-03-11T09:50:38.594Z,10.89
2024-03-11T09:53:27.314Z,10.94
2024-03-11T09:56:14.248Z,11.00
2024-03-11T09:59:05.072Z,11.04
2024-03-11T10:01:56.018Z,11.08
2024-03-11T10:04:42.975Z,11.13
2024-03-11T10:07:29.852Z,11.17
2024-03-11T10:10:17.472Z,11.25
2024-03-11T10:13:06.368Z,11.29
2024-03-11T10:15:54.214Z,11.33
2024-03-11T10:18:50.064Z,11.37
2024-03-11T10:21:37.041Z,11.39
2024-03-11T10:24:31.499Z,11.45
2024-03-11T10:27:20.558Z,11.49
2024-03-11T10:30:24.488Z,11.56
2024-03-11T10:33:11.498Z,11.61
2024-03-11T10:36:08.300Z,11.66
2024-03-11T10:38:55.391Z,11.71
2024-03-11T10:41:43.262Z,11.76
2024-03-11T10:44:34.309Z,11.81
2024-03-11T10:47:23.844Z,11.88
2024-03-11T10:50:15.966Z,11.93
2024-03-11T10:53:08.098Z,11.98
2024-03-11T10:56:00.017Z,12.01
2024-03-11T10:58:55.928Z,12.07
2024-03-11T11:01:47.349Z,12.12
2024-03-11T11:04:34.715Z,12.16
2024-03-11T11:07:31.136Z,12.22
2024-03-11T11:10:19.432Z,12.24
2024-03-11T11:13:07.007Z,12.27
2024-03-11T11:15:56.058Z,12.29
2024-03-11T11:18:44.094Z,12.33
2024-03-11T11:21:33.069Z,12.35
2024-03-11T11:24:27.830Z,12.37
2024-03-11T11:27:24.821Z,12.39
2024-03-11T11:30:15.540Z,12.40
2024-03-11T11:33:02.657Z,12.42
2024-03-11T11:35:49.757Z,12.43
2024-03-11T11:38:36.718Z,12.45
2024-03-11T11:41:37.896Z,12.44
2024-03-11T11:44:27.974Z,12.46
2024-03-11T11:47:16.776Z,12.47
2024-03-11T11:50:03.953Z,12.47
2024-03-11T11:53:03.937Z,12.51
2024-03-11T11:55:51.361Z,12.53
2024-03-11T11:58:39.441Z,12.58
2024-03-11T12:01:26.402Z,12.62
2024-03-11T12:04:13.381Z,12.65
2024-03-11T12:07:00.706Z,12.71
2024-03-11T12:09:55.585Z,12.79
2024-03-11T12:12:46.333Z,12.83
2024-03-11T12:15:35.284Z,12.87
2024-03-11T12:18:22.728Z,12.90
2024-03-11T12:21:14.806Z,12.94
2024-03-11T12:24:02.442Z,13.00
2024-03-11T12:26:51.628Z,13.07
2024-03-11T12:29:38.505Z,13.12
2024-03-11T12:32:28.082Z,13.20
2024-03-11T12:35:15.605Z,13.24
2024-03-11T12:38:04.694Z,13.30
2024-03-11T12:40:51.431Z,13.35
2024-03-11T12:43:42.816Z,13.39
2024-03-11T12:46:33.636Z,13.43
2024-03-11T12:49:21.617Z,13.47
2024-03-11T12:52:14.072Z,13.51
2024-03-11T12:55:12.388Z,13.54
2024-03-11T12:58:05.539Z,13.56
2024-03-11T13:01:02.602Z,13.59
2024-03-11T13:03:49.683Z,13.61
2024-03-11T13:06:37.536Z,13.63
2024-03-11T13:09:28.829Z,13.65
2024-03-11T13:12:19.989Z,13.67
2024-03-11T13:15:10.056Z,13.71
2024-03-11T13:17:57.610Z,13.74
2024-03-11T13:20:45.437Z,13.80
2024-03-11T13:23:35.971Z,13.83
2024-03-11T13:26:24.027Z,13.85
2024-03-11T13:29:12.694Z,13.88
2024-03-11T13:31:59.645Z,13.90
2024-03-11T13:34:46.523Z,13.92
2024-03-11T13:37:34.177Z,13.96
2024-03-11T13:40:21.126Z,13.99
2024-03-11T13:43:12.629Z,14.02
2024-03-11T13:45:59.751Z,14.02
2024-03-11T13:48:47.405Z,14.06
2024-03-11T13:51:35.479Z,14.08
2024-03-11T13:54:22.635Z,14.11
2024-03-11T13:57:10.046Z,14.14
2024-03-11T13:59:57.668Z,14.15
2024-03-11T14:02:46.868Z,14.16
2024-03-11T14:05:35.967Z,14.18
2024-03-11T14:08:24.120Z,14.17
2024-03-11T14:11:14.760Z,14.21
2024-03-11T14:14:03.472Z,14.25
2024-03-11T14:16:50.548Z,14.26
2024-03-11T14:19:38.067Z,14.26
2024-03-11T14:22:30.160Z,14.27
2024-03-11T14:25:19.284Z,14.29
2024-03-11T14:28:07.503Z,14.30
2024-03-11T14:30:55.717Z,14.29
2024-03-11T14:33:46.882Z,14.31
2024-03-11T14:36:36.974Z,14.33
2024-03-11T14:39:23.881Z,14.33
2024-03-11T14:42:12.503Z,14.34
2024-03-11T14:45:00.887Z,14.37
2024-03-11T14:47:47.795Z,14.38
2024-03-11T14:50:37.426Z,14.39
2024-03-11T14:53:27.492Z,14.40
2024-03-11T14:56:15.010Z,14.41
2024-03-11T14:59:04.590Z,14.43
2024-03-11T15:01:59.934Z,14.44
2024-03-11T15:04:50.197Z,14.47
2024-03-11T15:07:38.803Z,14.52
2024-03-11T15:10:33.602Z,14.55
2024-03-11T15:13:24.315Z,14.57
2024-03-11T15:16:19.874Z,14.57
2024-03-11T15:19:06.715Z,14.59
2024-03-11T15:21:53.783Z,14.59
2024-03-11T15:24:42.001Z,14.60
2024-03-11T15:27:28.877Z,14.62
2024-03-11T15:30:16.612Z,14.63
2024-03-11T15:33:04.759Z,14.66
2024-03-11T15:35:52.221Z,14.67
2024-03-11T15:38:39.558Z,14.67
2024-03-11T15:41:27.810Z,14.67
2024-03-11T15:44:14.760Z,14.67
2024-03-11T15:47:06.387Z,14.68
2024-03-11T15:49:53.875Z,14.68
2024-03-11T15:52:40.702Z,14.68
2024-03-11T15:55:28.026Z,14.69
2024-03-11T15:58:15.153Z,14.70
2024-03-11T16:01:02.152Z,14.72
2024-03-11T16:03:49.251Z,14.74
2024-03-11T16:06:38.624Z,14.75
2024-03-11T16:09:44.167Z,14.76
2024-03-11T16:12:31.029Z,14.76
2024-03-11T16:15:20.571Z,14.75
2024-03-11T16:18:08.338Z,14.75
2024-03-11T16:20:56.283Z,14.73
2024-03-11T16:23:43.136Z,14.75
2024-03-11T16:26:31.056Z,14.70
2024-03-11T16:29:18.034Z,14.67
2024-03-11T16:32:05.145Z,14.68
2024-03-11T16:34:53.093Z,14.71
2024-03-11T16:37:40.903Z,14.74
2024-03-11T16:40:29.533Z,14.78
2024-03-11T16:43:17.425Z,14.81
2024-03-11T16:46:04.914Z,14.85
2024-03-11T16:48:53.249Z,14.88
2024-03-11T16:51:40.178Z,14.90
2024-03-11T16:54:27.064Z,14.93
2024-03-11T16:57:14.346Z,14.94
2024-03-11T17:00:01.696Z,14.95
2024-03-11T17:02:59.719Z,14.98
2024-03-11T17:05:46.562Z,14.98
2024-03-11T17:08:33.439Z,14.99
2024-03-11T17:11:20.350Z,14.99
2024-03-11T17:14:08.612Z,14.99
2024-03-11T17:16:55.448Z,14.99
2024-03-11T17:19:43.123Z,15.00
2024-03-11T17:22:31.959Z,14.98
2024-03-11T17:25:22.412Z,14.98
2024-03-11T17:28:14.037Z,14.98
2024-03-11T17:31:03.622Z,14.97
2024-03-11T17:33:51.658Z,14.96
2024-03-11T17:36:38.751Z,14.96
2024-03-11T17:39:27.413Z,14.95
2024-03-11T17:42:17.523Z,14.95
2024-03-11T17:45:07.491Z,14.94
2024-03-11T17:47:54.442Z,14.93
2024-03-11T17:50:41.642Z,14.92
2024-03-11T17:53:28.710Z,14.92
2024-03-11T17:56:16.064Z,14.91
2024-03-11T17:59:02.940Z,14.91
2024-03-11T18:01:49.830Z,14.91
2024-03-11T18:04:39.158Z,14.90
2024-03-11T18:07:26.017Z,14.89
2024-03-11T18:10:16.591Z,14.88
2024-03-11T18:13:13.134Z,14.88
2024-03-11T18:16:00.843Z,14.88
2024-03-11T18:18:49.449Z,14.89
2024-03-11T18:21:39.531Z,14.87
2024-03-11T18:24:26.827Z,14.87
2024-03-11T18:27:13.736Z,14.87
2024-03-11T18:30:00.605Z,14.87
2024-03-11T18:32:52.044Z,14.86
2024-03-11T18:35:39.758Z,14.86
2024-03-11T18:38:26.912Z,14.85
2024-03-11T18:41:13.787Z,14.84
2024-03-11T18:44:01.205Z,14.84
2024-03-11T18:46:48.301Z,14.83
2024-03-11T18:49:35.685Z,14.82
2024-03-11T18:52:22.977Z,14.80
2024-03-11T18:55:13.245Z,14.80
2024-03-11T18:58:01.351Z,14.79
2024-03-11T19:00:48.761Z,14.80
2024-03-11T19:03:35.644Z,14.79
2024-03-11T19:06:22.570Z,14.77
2024-03-11T19:09:09.447Z,14.76
2024-03-11T19:11:56.712Z,14.75
2024-03-11T19:14:44.457Z,14.74
2024-03-11T19:17:31.375Z,14.74
2024-03-11T19:20:22.575Z,14.73
2024-03-11T19:23:09.885Z,14.73
2024-03-11T19:26:02.225Z,14.73
2024-03-11T19:28:51.842Z,14.71
2024-03-11T19:31:39.082Z,14.70
2024-03-11T19:34:28.174Z,14.69
2024-03-11T19:37:55.202Z,14.67
2024-03-11T19:40:44.800Z,14.68
2024-03-11T19:44:13.692Z,14.64
2024-03-11T19:47:34.287Z,14.63
2024-03-11T19:50:46.167Z,14.61
2024-03-11T19:54:03.259Z,14.60
2024-03-11T19:57:16.802Z,14.59
2024-03-11T20:00:37.766Z,14.58
2024-03-11T20:03:41.442Z,14.57
2024-03-11T20:06:53.670Z,14.56
2024-03-11T20:10:18.015Z,14.55
2024-03-11T20:13:38.037Z,14.53
2024-03-11T20:16:56.541Z,14.51
2024-03-11T20:20:22.514Z,14.51
2024-03-11T20:23:37.243Z,14.49
2024-03-11T20:26:30.042Z,14.49
2024-03-11T20:29:23.267Z,14.48
2024-03-11T20:32:20.793Z,14.48
2024-03-11T20:35:09.018Z,14.45
2024-03-11T20:37:55.980Z,14.45
2024-03-11T20:40:43.011Z,14.42
2024-03-11T20:43:30.477Z,14.42
2024-03-11T20:46:18.454Z,14.40
2024-03-11T20:49:05.724Z,14.38
2024-03-11T20:51:52.684Z,14.35
2024-03-11T20:54:40.361Z,14.36
2024-03-11T20:57:28.611Z,14.33
2024-03-11T21:00:20.007Z,14.32
2024-03-11T21:03:07.382Z,14.30
2024-03-11T21:05:54.231Z,14.29
2024-03-11T21:08:41.781Z,14.28
2024-03-11T21:11:30.862Z,14.26
2024-03-11T21:14:19.076Z,14.24
2024-03-11T21:17:10.212Z,14.21
2024-03-11T21:20:12.014Z,14.18
2024-03-11T21:23:08.952Z,14.17
2024-03-11T21:26:05.372Z,14.15
2024-03-11T21:28:52.426Z,14.13
2024-03-11T21:31:39.254Z,14.11
2024-03-11T21:34:26.986Z,14.07
2024-03-11T21:37:13.929Z,14.06
2024-03-11T21:40:01.208Z,14.03
2024-03-11T21:42:50.947Z,14.02
2024-03-11T21:45:38.534Z,13.99
2024-03-11T21:48:25.463Z,13.96
2024-03-11T21:51:12.470Z,13.95
2024-03-11T21:53:59.347Z,13.93
2024-03-11T21:56:46.203Z,13.90
2024-03-11T21:59:33.243Z,13.89
2024-03-11T22:02:20.780Z,13.87
2024-03-11T22:05:07.719Z,13.85
2024-03-11T22:07:54.546Z,13.82
2024-03-11T22:10:41.402Z,13.81
2024-03-11T22:13:28.325Z,13.79
2024-03-11T22:16:15.206Z,13.78
2024-03-11T22:19:02.124Z,13.76
2024-03-11T22:21:49.121Z,13.74
2024-03-11T22:24:36.060Z,13.71
2024-03-11T22:27:23.052Z,13.69
2024-03-11T22:30:11.836Z,13.66
2024-03-11T22:32:59.439Z,13.66
2024-03-11T22:35:46.470Z,13.62
2024-03-11T22:38:34.773Z,13.61
2024-03-11T22:41:26.387Z,13.58
2024-03-11T22:44:13.310Z,13.57
2024-03-11T22:47:00.147Z,13.54
2024-03-11T22:49:47.132Z,13.52
2024-03-11T22:52:34.315Z,13.48
2024-03-11T22:55:21.615Z,13.47
2024-03-11T22:58:11.085Z,13.45
2024-03-11T23:01:07.773Z,13.44
2024-03-11T23:03:55.115Z,13.41
2024-03-11T23:06:42.520Z,13.39
2024-03-11T23:09:30.399Z,13.37
2024-03-11T23:12:17.384Z,13.34
2024-03-11T23:15:11.026Z,13.32
2024-03-11T23:17:57.909Z,13.31
2024-03-11T23:20:46.834Z,13.28
2024-03-11T23:23:35.133Z,13.28
2024-03-11T23:26:23.941Z,13.24
2024-03-11T23:29:10.810Z,13.22
2024-03-11T23:31:57.655Z,13.20
2024-03-11T23:34:45.497Z,13.18
2024-03-11T23:37:32.474Z,13.15
2024-03-11T23:40:21.847Z,13.14
2024-03-11T23:43:08.925Z,13.12
2024-03-11T23:45:56.288Z,13.09
2024-03-11T23:48:44.881Z,13.06
2024-03-11T23:51:32.429Z,13.05
2024-03-11T23:54:19.553Z,13.02
2024-03-11T23:57:08.448Z,12.99
2024-03-11T23:59:55.787Z,12.98
